www.000webhost.com
 METAR AND TAF INFORMATION
METAR FOR SVBM
ADDS - METARS form results

(1751 UTC 26 May 2019)
Data provider http://aviationweather.gov/metar/data/
 
METAR text: SVBM 261700Z 09009KT 9999 SCT016CB 29/20 Q1013
Conditions at: SVBM (BARQUISIMETO (MI, VE) observed 1700 UTC 26 May 2019
Temperature: 29.0°C (84°F)
Dewpoint: 20.0°C (68°F) [RH = 58%]
Pressure (altimeter): 29.91 inches Hg (1013.0 mb)
Winds: from the E (90 degrees) at 10 MPH (9 knots; 4.6 m/s)
Visibility: 6 or more miles (10+ km)
Ceiling: at least 12,000 feet AGL
Clouds: scattered clouds at 1600 feet AGL
Weather: no significant weather observed at this time

 AIRPORT MAP

 RUNWAY INFORMATION
Runway 09 Runway length 9350 ft Runway width 147 ft
Runway elevation 2042 ft Runway displaced threshold 0 ft Runway heading 81
Runway 27 Runway length 9350 ft Runway width 147 ft
Runway elevation 2001 ft Runway displaced threshold 1541 ft Runway heading 261

 AIRPORT FREQUENCIES
Type A/G Name LANDAETA R Frequency 569.65 MHZ
Type APP Name APP Frequency 119.4 MHZ
Type ATIS Name ATIS Frequency 112.2 MHZ
Type GND Name GND Frequency 121.9 MHZ
Type RDO Name RDO Frequency 123.1 MHZ
Type RDO Name RDO Frequency 132 MHZ
Type TWR Name TWR Frequency 123.5 MHZ

 AIRPORT NEAR NAVIGATION AIDS
Type VOR-DME Name Barquisimeto Frequency 112200 KHZ



Powered by Virtual Airlines Manager [v2.6.2]